Seishin Maru — JL6275 — position and weather

sailwx.info

Track history (hours):
 
Tides and Currents Weather Stations Pressure Air Temp Water Temp Dewpoint Dewpoint Depression Visibility Wind Speed Wind Dir Waves Ship Positions

Seishin Maru

Last reported at 2018-Jun-16 06:18 UTC. Time now 2018-Jun-20 09:07 UTC.
Position N 33°48' E 135°03'.

Length 76 m; draft 4.2 m.

Type: Cargo ship. MMSI: 431500543.

Date/timePositionNaut miles runAvg speedWind from/ knotsBaromVisibWave heightAir tempDewpointWater temp
2018-Jun-16 06:18N 33°48' E 135°03'411.0
2018-Jun-16 05:58N 33°51' E 135°01'511.0
2018-Jun-16 05:30N 33°55' E 134°57'610.7
2018-Jun-16 04:56N 33°60' E 134°52'410.6
2018-Jun-16 04:31N 34°03' E 134°48'1011.4
2018-Jun-16 03:36N 34°11' E 134°41'112.9
2018-Jun-16 03:30N 34°12' E 134°40'811.0
2018-Jun-16 02:49N 34°17' E 134°33'3 9.8
2018-Jun-16 02:30N 34°18' E 134°29'5 9.8
2018-Jun-16 02:00N 34°20' E 134°24'  
Track history (hours):
 
Tides and Currents Weather Stations Pressure Air Temp Water Temp Dewpoint Dewpoint Depression Visibility Wind Speed Wind Dir Waves Ship Positions

Seishin Maru

Last reported at 2018-Jun-16 06:18 UTC. Time now 2018-Jun-20 09:07 UTC.
Position N 33°48' E 135°03'.

Length 76 m; draft 4.2 m.

Type: Cargo ship. MMSI: 431500543.

Date/timePositionNaut miles runAvg speedWind from/ knotsBaromVisibWave heightAir tempDewpointWater temp
2018-Jun-16 06:18N 33°48' E 135°03'411.0
2018-Jun-16 05:58N 33°51' E 135°01'511.0
2018-Jun-16 05:30N 33°55' E 134°57'610.7
2018-Jun-16 04:56N 33°60' E 134°52'410.6
2018-Jun-16 04:31N 34°03' E 134°48'1011.4
2018-Jun-16 03:36N 34°11' E 134°41'112.9
2018-Jun-16 03:30N 34°12' E 134°40'811.0
2018-Jun-16 02:49N 34°17' E 134°33'3 9.8
2018-Jun-16 02:30N 34°18' E 134°29'5 9.8
2018-Jun-16 02:00N 34°20' E 134°24'  

Dump ship's entire track history